Terminal Aerodrome Forecast
Issued by NWS

Home | Current Version | Previous Version | Graphics & Text | Print | Product List | Glossary On
Versions: 1 2 3 4 5 6 7 8 9 10 11 12 13 14 15
000
FTUS43 KICT 181100
TAFRSL
TAF
KRSL 181120Z 1812/1912 20007KT P6SM SKC
     FM182200 19008KT P6SM FEW090
     FM190300 02007KT P6SM VCTS BKN080CB
     FM190800 05005KT P6SM SCT150=

USA.gov is the U.S. government's official web portal to all federal, state and local government web resources and services.